createdAt,value
2018-12-12T00:01:23.992Z,18.870000000000005
2018-12-12T00:04:46.171Z,18.870000000000005
2018-12-12T00:08:08.349Z,18.870000000000005
2018-12-12T00:11:30.464Z,18.86
2018-12-12T00:14:52.702Z,18.86
2018-12-12T00:18:14.903Z,18.849999999999994
2018-12-12T00:21:37.046Z,18.849999999999994
2018-12-12T00:24:59.149Z,18.83
2018-12-12T00:28:21.314Z,18.849999999999994
2018-12-12T00:31:43.521Z,18.83
2018-12-12T00:35:05.761Z,18.83
2018-12-12T00:38:27.836Z,18.83
2018-12-12T00:41:50.003Z,18.83
2018-12-12T00:45:12.179Z,18.83
2018-12-12T00:48:34.363Z,18.819999999999993
2018-12-12T00:51:56.609Z,18.819999999999993
2018-12-12T00:55:18.743Z,18.810000000000002
2018-12-12T00:58:40.874Z,18.810000000000002
2018-12-12T01:02:03.056Z,18.799999999999997
2018-12-12T01:05:25.378Z,18.799999999999997
2018-12-12T01:08:47.467Z,18.810000000000002
2018-12-12T01:12:09.641Z,18.799999999999997
2018-12-12T01:15:31.823Z,18.799999999999997
2018-12-12T01:18:53.990Z,18.790000000000006
2018-12-12T01:22:16.196Z,18.78
2018-12-12T01:25:38.332Z,18.790000000000006
2018-12-12T01:29:00.435Z,18.769999999999996
2018-12-12T01:32:22.706Z,18.769999999999996
2018-12-12T01:35:44.875Z,18.769999999999996
2018-12-12T01:39:07.044Z,18.760000000000005
2018-12-12T01:42:29.228Z,18.75
2018-12-12T01:45:51.314Z,18.75
2018-12-12T01:49:13.571Z,18.75
2018-12-12T01:52:35.710Z,18.739999999999995
2018-12-12T01:55:57.910Z,18.739999999999995
2018-12-12T01:59:20.097Z,18.72
2018-12-12T02:02:42.281Z,18.72
2018-12-12T02:06:04.419Z,18.72
2018-12-12T02:09:26.581Z,18.72
2018-12-12T02:12:48.787Z,18.72
2018-12-12T02:16:10.936Z,18.709999999999994
2018-12-12T02:19:33.129Z,18.709999999999994
2018-12-12T02:22:55.312Z,18.689999999999998
2018-12-12T02:26:17.476Z,18.709999999999994
2018-12-12T02:29:39.602Z,18.689999999999998
2018-12-12T02:33:01.732Z,18.689999999999998
2018-12-12T02:36:24.000Z,18.689999999999998
2018-12-12T02:39:46.548Z,18.680000000000007
2018-12-12T02:43:08.339Z,18.689999999999998
2018-12-12T02:46:30.533Z,18.680000000000007
2018-12-12T02:49:52.691Z,18.67
2018-12-12T02:50:20.070Z,18.67
2018-12-12T02:53:14.861Z,18.659999999999997
2018-12-12T02:56:37.031Z,18.659999999999997
2018-12-12T02:59:59.120Z,18.67
2018-12-12T03:03:21.307Z,18.67
2018-12-12T03:06:43.545Z,18.64
2018-12-12T03:10:05.718Z,18.650000000000006
2018-12-12T03:13:27.898Z,18.620000000000005
2018-12-12T03:16:50.104Z,18.620000000000005
2018-12-12T03:20:12.250Z,18.620000000000005
2018-12-12T03:23:34.429Z,18.61
2018-12-12T03:26:56.518Z,18.61
2018-12-12T03:30:18.794Z,18.599999999999994
2018-12-12T03:33:40.936Z,18.61
2018-12-12T03:37:03.033Z,18.599999999999994
2018-12-12T03:40:25.392Z,18.599999999999994
2018-12-12T03:43:47.471Z,18.599999999999994
2018-12-12T03:47:09.554Z,18.58
2018-12-12T03:50:31.822Z,18.58
2018-12-12T03:53:53.926Z,18.58
2018-12-12T03:57:16.208Z,18.58
2018-12-12T04:00:38.332Z,18.549999999999997
2018-12-12T04:04:00.423Z,18.560000000000002
2018-12-12T04:07:22.667Z,18.569999999999993
2018-12-12T04:10:44.767Z,18.540000000000006
2018-12-12T04:14:07.010Z,18.540000000000006
2018-12-12T04:17:29.178Z,18.53
2018-12-12T04:20:51.351Z,18.540000000000006
2018-12-12T04:24:13.523Z,18.540000000000006
2018-12-12T04:27:35.627Z,18.519999999999996
2018-12-12T04:30:57.876Z,18.53
2018-12-12T04:34:19.993Z,18.519999999999996
2018-12-12T04:37:42.291Z,18.519999999999996
2018-12-12T04:41:04.416Z,18.5
2018-12-12T04:44:26.576Z,18.5
2018-12-12T04:47:50.322Z,18.5
2018-12-12T04:51:10.844Z,18.5
2018-12-12T04:54:33.012Z,18.47
2018-12-12T04:57:55.181Z,18.47
2018-12-12T05:01:17.359Z,18.47
2018-12-12T05:04:39.527Z,18.47
2018-12-12T05:08:01.712Z,18.459999999999994
2018-12-12T05:11:23.883Z,18.47
2018-12-12T05:14:46.129Z,18.47
2018-12-12T05:18:08.253Z,18.439999999999998
2018-12-12T05:21:30.414Z,18.439999999999998
2018-12-12T05:24:52.673Z,18.439999999999998
2018-12-12T05:28:15.598Z,18.439999999999998
2018-12-12T05:31:37.001Z,18.439999999999998
2018-12-12T05:34:59.122Z,18.439999999999998
2018-12-12T05:38:21.304Z,18.42
2018-12-12T05:41:43.470Z,18.42
2018-12-12T05:45:05.723Z,18.42
2018-12-12T05:48:27.873Z,18.42
2018-12-12T05:51:49.985Z,18.42
2018-12-12T05:55:12.216Z,18.400000000000006
2018-12-12T05:58:34.408Z,18.400000000000006
2018-12-12T06:01:56.622Z,18.400000000000006
2018-12-12T06:05:18.748Z,18.400000000000006
2018-12-12T06:08:40.841Z,18.400000000000006
2018-12-12T06:12:03.090Z,18.400000000000006
2018-12-12T06:15:25.271Z,18.370000000000005
2018-12-12T06:18:47.440Z,18.370000000000005
2018-12-12T06:22:09.612Z,18.370000000000005
2018-12-12T06:25:31.784Z,18.370000000000005
2018-12-12T06:28:53.967Z,18.36
2018-12-12T06:32:16.133Z,18.36
2018-12-12T06:35:38.229Z,18.370000000000005
2018-12-12T06:39:00.488Z,18.349999999999994
2018-12-12T06:42:22.685Z,18.33
2018-12-12T06:45:44.839Z,18.33
2018-12-12T06:49:07.017Z,18.33
2018-12-12T06:52:29.099Z,18.33
2018-12-12T06:55:51.341Z,18.33
2018-12-12T06:59:13.459Z,18.33
2018-12-12T07:02:35.702Z,18.310000000000002
2018-12-12T07:05:57.858Z,18.319999999999993
2018-12-12T07:09:20.036Z,18.36
2018-12-12T07:12:42.236Z,18.620000000000005
2018-12-12T07:16:05.182Z,18.86
2018-12-12T07:19:26.510Z,18.939999999999998
2018-12-12T07:22:48.756Z,19.019999999999996
2018-12-12T07:26:10.841Z,19.120000000000005
2018-12-12T07:29:33.068Z,19.17
2018-12-12T07:32:55.260Z,19.22
2018-12-12T07:36:17.344Z,19.370000000000005
2018-12-12T07:39:39.555Z,19.519999999999996
2018-12-12T07:43:01.823Z,19.620000000000005
2018-12-12T07:46:23.943Z,19.739999999999995
2018-12-12T07:49:46.041Z,19.819999999999993
2018-12-12T07:53:08.217Z,19.909999999999997
2018-12-12T07:56:30.521Z,19.97
2018-12-12T07:59:52.561Z,20.069999999999993
2018-12-12T08:03:14.901Z,20.180000000000007
2018-12-12T08:06:36.907Z,20.260000000000005
2018-12-12T08:09:59.159Z,20.319999999999993
2018-12-12T08:13:21.339Z,20.33
2018-12-12T08:16:43.500Z,20.36
2018-12-12T08:20:05.688Z,20.430000000000007
2018-12-12T08:26:50.024Z,20.58
2018-12-12T08:30:12.177Z,20.659999999999997
2018-12-12T08:33:34.531Z,20.72
2018-12-12T08:36:56.569Z,20.72
2018-12-12T08:40:18.734Z,20.790000000000006
2018-12-12T08:47:03.103Z,20.86
2018-12-12T08:50:25.291Z,20.900000000000006
2018-12-12T08:53:47.444Z,20.959999999999994
2018-12-12T08:57:09.550Z,21.040000000000006
2018-12-12T09:00:31.792Z,21.08
2018-12-12T09:03:53.974Z,21.120000000000005
2018-12-12T09:07:16.141Z,21.120000000000005
2018-12-12T09:10:38.237Z,21.150000000000006
2018-12-12T09:14:00.411Z,21.180000000000007
2018-12-12T09:17:22.713Z,21.209999999999994
2018-12-12T09:20:44.858Z,21.22
2018-12-12T09:24:06.950Z,21.25
2018-12-12T09:27:29.171Z,21.290000000000006
2018-12-12T09:30:51.688Z,21.33
2018-12-12T09:34:13.541Z,21.319999999999993
2018-12-12T09:37:35.688Z,21.349999999999994
2018-12-12T09:40:57.888Z,21.370000000000005
2018-12-12T09:44:20.147Z,21.39
2018-12-12T09:47:42.233Z,21.370000000000005
2018-12-12T09:51:04.404Z,21.42
2018-12-12T09:54:26.612Z,21.439999999999998
2018-12-12T09:57:48.813Z,21.459999999999994
2018-12-12T10:01:10.942Z,21.47
2018-12-12T10:04:33.233Z,21.489999999999995
2018-12-12T10:07:59.062Z,21.53
2018-12-12T10:11:17.445Z,21.540000000000006
2018-12-12T10:14:39.738Z,21.53
2018-12-12T10:18:01.941Z,21.519999999999996
2018-12-12T10:21:23.959Z,21.47
2018-12-12T10:24:46.234Z,21.549999999999997
2018-12-12T10:28:08.312Z,21.58
2018-12-12T10:31:30.503Z,21.58
2018-12-12T10:34:52.729Z,21.620000000000005
2018-12-12T10:38:14.918Z,21.64
2018-12-12T10:41:37.024Z,21.659999999999997
2018-12-12T10:44:59.354Z,21.620000000000005
2018-12-12T10:48:21.302Z,20.909999999999997
2018-12-12T10:51:43.486Z,20.689999999999998
2018-12-12T10:55:05.835Z,20.040000000000006
2018-12-12T10:58:29.432Z,20.47
2018-12-12T11:01:50.100Z,20.810000000000002
2018-12-12T11:05:12.256Z,21.010000000000005
2018-12-12T11:08:34.492Z,21.120000000000005
2018-12-12T11:11:56.551Z,21.150000000000006
2018-12-12T11:15:18.831Z,21.180000000000007
2018-12-12T11:18:40.886Z,21.209999999999994
2018-12-12T11:22:03.155Z,21.209999999999994
2018-12-12T11:25:25.307Z,21.17
2018-12-12T11:28:47.619Z,21.180000000000007
2018-12-12T11:32:09.604Z,21.180000000000007
2018-12-12T11:35:31.971Z,21.159999999999997
2018-12-12T11:38:53.959Z,21.159999999999997
2018-12-12T11:42:16.140Z,21.159999999999997
2018-12-12T11:45:38.373Z,21.150000000000006
2018-12-12T11:49:00.654Z,21.17
2018-12-12T11:52:22.667Z,21.17
2018-12-12T11:59:07.007Z,21.150000000000006
2018-12-12T12:02:29.202Z,21.14
2018-12-12T12:05:51.555Z,21.120000000000005
2018-12-12T12:09:13.638Z,21.120000000000005
2018-12-12T12:15:58.047Z,21.120000000000005
2018-12-12T12:19:20.154Z,21.08
2018-12-12T12:22:42.349Z,21.08
2018-12-12T12:26:04.466Z,21.099999999999994
2018-12-12T12:29:26.666Z,21.099999999999994
2018-12-12T12:32:48.957Z,21.099999999999994
2018-12-12T12:36:11.172Z,21.099999999999994
2018-12-12T12:39:33.115Z,21.099999999999994
2018-12-12T12:42:55.425Z,21.08
2018-12-12T12:46:17.567Z,20.22
2018-12-12T12:49:39.766Z,19.689999999999998
2018-12-12T12:53:05.118Z,19.799999999999997
2018-12-12T12:56:24.132Z,20.290000000000006
2018-12-12T12:59:46.306Z,20.620000000000005
2018-12-12T13:03:08.688Z,20.769999999999996
2018-12-12T13:06:30.590Z,20.870000000000005
2018-12-12T13:09:52.824Z,20.939999999999998
2018-12-12T13:13:14.983Z,21.019999999999996
2018-12-12T13:16:37.140Z,21.069999999999993
2018-12-12T13:19:59.342Z,21.120000000000005
2018-12-12T13:23:21.395Z,21.209999999999994
2018-12-12T13:26:43.677Z,21.299999999999997
2018-12-12T13:30:05.847Z,21.269999999999996
2018-12-12T13:30:45.415Z,21.269999999999996
2018-12-12T13:33:28.029Z,21.290000000000006
2018-12-12T13:36:50.170Z,21.349999999999994
2018-12-12T13:40:12.373Z,21.409999999999997
2018-12-12T13:43:34.454Z,21.47
2018-12-12T13:46:56.817Z,21.519999999999996
2018-12-12T13:50:18.890Z,21.549999999999997
2018-12-12T13:53:41.085Z,21.599999999999994
2018-12-12T13:57:03.247Z,21.61
2018-12-12T14:00:25.419Z,21.67
2018-12-12T14:03:47.637Z,21.680000000000007
2018-12-12T14:07:09.814Z,21.72
2018-12-12T14:10:31.981Z,21.760000000000005
2018-12-12T14:13:54.123Z,21.72
2018-12-12T14:17:16.273Z,21.680000000000007
2018-12-12T14:20:38.504Z,21.659999999999997
2018-12-12T14:24:00.644Z,21.620000000000005
2018-12-12T14:27:22.763Z,21.61
2018-12-12T14:30:44.926Z,21.599999999999994
2018-12-12T14:34:07.105Z,21.569999999999993
2018-12-12T14:37:29.387Z,21.540000000000006
2018-12-12T14:40:51.469Z,21.510000000000005
2018-12-12T14:44:13.631Z,21.489999999999995
2018-12-12T14:47:35.812Z,21.459999999999994
2018-12-12T14:50:57.995Z,21.439999999999998
2018-12-12T14:54:20.232Z,21.439999999999998
2018-12-12T14:57:42.388Z,21.409999999999997
2018-12-12T15:01:04.588Z,21.400000000000006
2018-12-12T15:04:26.779Z,21.400000000000006
2018-12-12T15:07:49.115Z,21.439999999999998
2018-12-12T15:11:11.102Z,21.47
2018-12-12T15:14:33.220Z,21.53
2018-12-12T15:21:17.632Z,21.58
2018-12-12T15:24:39.784Z,21.61
2018-12-12T15:28:05.221Z,21.64
2018-12-12T15:31:24.189Z,21.67
2018-12-12T15:34:46.361Z,21.689999999999998
2018-12-12T15:38:08.529Z,21.739999999999995
2018-12-12T15:41:30.756Z,21.78
2018-12-12T15:44:52.873Z,21.799999999999997
2018-12-12T15:48:15.159Z,21.849999999999994
2018-12-12T15:51:37.133Z,21.870000000000005
2018-12-12T15:54:59.339Z,21.900000000000006
2018-12-12T15:58:21.596Z,21.939999999999998
2018-12-12T16:01:43.748Z,21.97
2018-12-12T16:05:06.178Z,22
2018-12-12T16:08:28.105Z,22
2018-12-12T16:11:50.301Z,22.010000000000005
2018-12-12T16:15:12.391Z,22.040000000000006
2018-12-12T16:18:34.609Z,22.060000000000002
2018-12-12T16:21:56.769Z,22.08
2018-12-12T16:25:18.921Z,22.08
2018-12-12T16:28:41.270Z,22.099999999999994
2018-12-12T16:32:03.329Z,22.069999999999993
2018-12-12T16:35:25.519Z,22.069999999999993
2018-12-12T16:38:47.694Z,22.099999999999994
2018-12-12T16:42:09.862Z,22.14
2018-12-12T16:45:32.032Z,22.150000000000006
2018-12-12T16:48:54.222Z,22.180000000000007
2018-12-12T16:52:16.319Z,22.209999999999994
2018-12-12T16:55:38.506Z,22.189999999999998
2018-12-12T16:59:00.748Z,22.22
2018-12-12T17:02:22.834Z,22.239999999999995
2018-12-12T17:05:45.102Z,22.260000000000005
2018-12-12T17:09:07.265Z,22.269999999999996
2018-12-12T17:12:29.360Z,22.25
2018-12-12T17:15:51.527Z,22.22
2018-12-12T17:19:13.783Z,22.239999999999995
2018-12-12T17:22:35.909Z,22.33
2018-12-12T17:25:58.118Z,22.370000000000005
2018-12-12T17:29:20.253Z,22.370000000000005
2018-12-12T17:32:42.391Z,22.299999999999997
2018-12-12T17:36:04.678Z,22.010000000000005
2018-12-12T17:39:26.934Z,21.959999999999994
2018-12-12T17:42:48.916Z,21.89
2018-12-12T17:46:11.163Z,21.849999999999994
2018-12-12T17:49:33.376Z,21.86
2018-12-12T17:52:55.511Z,21.810000000000002
2018-12-12T17:56:17.608Z,21.939999999999998
2018-12-12T17:59:39.880Z,21.760000000000005
2018-12-12T18:03:02.117Z,21.799999999999997
2018-12-12T18:06:24.219Z,21.72
2018-12-12T18:09:46.372Z,21.760000000000005
2018-12-12T18:13:08.561Z,21.689999999999998
2018-12-12T18:16:30.660Z,21.709999999999994
2018-12-12T18:19:52.820Z,21.769999999999996
2018-12-12T18:23:17.204Z,21.599999999999994
2018-12-12T18:26:37.277Z,21.61
2018-12-12T18:29:59.421Z,21.58
2018-12-12T18:33:21.608Z,21.540000000000006
2018-12-12T18:36:43.705Z,21.769999999999996
2018-12-12T18:40:05.932Z,21.939999999999998
2018-12-12T18:43:28.122Z,22.040000000000006
2018-12-12T18:46:50.231Z,22.120000000000005
2018-12-12T18:46:50.720Z,22.120000000000005
2018-12-12T18:50:12.482Z,22.189999999999998
2018-12-12T18:53:34.568Z,22.290000000000006
2018-12-12T18:56:56.845Z,22.22
2018-12-12T19:00:18.999Z,22.17
2018-12-12T19:03:41.236Z,22.14
2018-12-12T19:07:03.273Z,22.120000000000005
2018-12-12T19:10:25.500Z,22.11
2018-12-12T19:13:49.975Z,22.120000000000005
2018-12-12T19:17:09.853Z,22.150000000000006
2018-12-12T19:20:32.052Z,22.150000000000006
2018-12-12T19:23:54.125Z,22.14
2018-12-12T19:27:16.368Z,22.14
2018-12-12T19:30:38.555Z,22.159999999999997
2018-12-12T19:34:00.724Z,22.150000000000006
2018-12-12T19:37:22.892Z,22.14
2018-12-12T19:40:45.121Z,22.120000000000005
2018-12-12T19:44:07.175Z,22.120000000000005
2018-12-12T19:47:29.348Z,22.08
2018-12-12T19:50:51.511Z,22.08
2018-12-12T19:54:13.761Z,22.049999999999997
2018-12-12T19:57:35.938Z,22.03
2018-12-12T20:00:58.111Z,22.010000000000005
2018-12-12T20:04:20.290Z,22
2018-12-12T20:07:42.416Z,21.97
2018-12-12T20:11:04.636Z,21.959999999999994
2018-12-12T20:14:26.952Z,21.939999999999998
2018-12-12T20:17:48.965Z,21.92
2018-12-12T20:21:11.153Z,21.900000000000006
2018-12-12T20:24:33.373Z,21.870000000000005
2018-12-12T20:27:55.498Z,21.870000000000005
2018-12-12T20:31:17.672Z,21.86
2018-12-12T20:34:39.844Z,21.83
2018-12-12T20:38:02.006Z,21.819999999999993
2018-12-12T20:41:24.187Z,21.799999999999997
2018-12-12T20:44:46.369Z,21.78
2018-12-12T20:48:08.564Z,21.769999999999996
2018-12-12T20:51:30.660Z,21.75
2018-12-12T20:54:52.881Z,21.72
2018-12-12T20:58:15.063Z,21.72
2018-12-12T21:01:37.259Z,21.709999999999994
2018-12-12T21:04:59.342Z,21.689999999999998
2018-12-12T21:08:21.592Z,21.680000000000007
2018-12-12T21:08:22.111Z,21.680000000000007
2018-12-12T21:11:43.754Z,21.680000000000007
2018-12-12T21:15:05.851Z,21.67
2018-12-12T21:18:28.128Z,21.67
2018-12-12T21:21:50.191Z,21.659999999999997
2018-12-12T21:25:12.463Z,21.650000000000006
2018-12-12T21:28:34.623Z,21.64
2018-12-12T21:31:56.829Z,21.620000000000005
2018-12-12T21:35:20.363Z,21.620000000000005
2018-12-12T21:38:41.153Z,21.620000000000005
2018-12-12T21:42:03.248Z,21.61
2018-12-12T21:45:25.484Z,21.599999999999994
2018-12-12T21:48:47.682Z,21.58
2018-12-12T21:52:09.874Z,21.599999999999994
2018-12-12T21:55:32.034Z,21.58
2018-12-12T21:58:54.141Z,21.58
2018-12-12T22:02:16.321Z,21.58
2018-12-12T22:05:38.542Z,21.560000000000002
2018-12-12T22:09:00.687Z,21.569999999999993
2018-12-12T22:12:22.884Z,21.549999999999997
2018-12-12T22:15:44.979Z,21.549999999999997
2018-12-12T22:19:07.223Z,21.540000000000006
2018-12-12T22:22:29.404Z,21.540000000000006
2018-12-12T22:25:51.500Z,21.540000000000006
2018-12-12T22:29:13.821Z,21.540000000000006
2018-12-12T22:32:36.022Z,21.599999999999994
2018-12-12T22:35:58.026Z,21.689999999999998
2018-12-12T22:39:20.281Z,21.72
2018-12-12T22:42:42.499Z,21.769999999999996
2018-12-12T22:46:04.647Z,21.75
2018-12-12T22:49:26.842Z,21.72
2018-12-12T22:52:49.004Z,21.709999999999994
2018-12-12T22:56:11.142Z,21.689999999999998
2018-12-12T22:59:33.295Z,21.689999999999998
2018-12-12T23:02:55.422Z,21.67
2018-12-12T23:06:17.645Z,21.650000000000006
2018-12-12T23:09:39.824Z,21.64
2018-12-12T23:13:02.000Z,21.620000000000005
2018-12-12T23:16:24.125Z,21.61
2018-12-12T23:19:46.360Z,21.58
2018-12-12T23:23:08.466Z,21.58
2018-12-12T23:26:30.726Z,21.560000000000002
2018-12-12T23:29:52.799Z,21.549999999999997
2018-12-12T23:33:15.068Z,21.540000000000006
2018-12-12T23:36:37.241Z,21.53
2018-12-12T23:39:59.319Z,21.5
2018-12-12T23:43:21.584Z,21.47
2018-12-12T23:46:43.760Z,21.489999999999995
2018-12-12T23:50:05.949Z,21.459999999999994
2018-12-12T23:53:28.104Z,21.439999999999998
2018-12-12T23:56:54.007Z,21.439999999999998
